Map

Track Data

SID SEASON NUMBER BASIN SUBBASIN NAME ISO_TIME NATURE LAT LON WMO_WIND WMO_PRES WMO_AGENCY TRACK_TYPE DIST2LAND LANDFALL IFLAG USA_AGENCY USA_ATCF_ID USA_LAT USA_LON USA_RECORD USA_STATUS USA_WIND USA_PRES USA_SSHS USA_R34_NE USA_R34_SE USA_R34_SW USA_R34_NW USA_R50_NE USA_R50_SE USA_R50_SW USA_R50_NW USA_R64_NE USA_R64_SE USA_R64_SW USA_R64_NW USA_POCI USA_ROCI USA_RMW USA_EYE TOKYO_LAT TOKYO_LON TOKYO_GRADE TOKYO_WIND TOKYO_PRES TOKYO_R50_DIR TOKYO_R50_LONG TOKYO_R50_SHORT TOKYO_R30_DIR TOKYO_R30_LONG TOKYO_R30_SHORT TOKYO_LAND CMA_LAT CMA_LON CMA_CAT CMA_WIND CMA_PRES HKO_LAT HKO_LON HKO_CAT HKO_WIND HKO_PRES NEWDELHI_LAT NEWDELHI_LON NEWDELHI_GRADE NEWDELHI_WIND NEWDELHI_PRES NEWDELHI_CI NEWDELHI_DP NEWDELHI_POCI REUNION_LAT REUNION_LON REUNION_TYPE REUNION_WIND REUNION_PRES REUNION_TNUM REUNION_CI REUNION_RMW REUNION_R34_NE REUNION_R34_SE REUNION_R34_SW REUNION_R34_NW REUNION_R50_NE REUNION_R50_SE REUNION_R50_SW REUNION_R50_NW REUNION_R64_NE REUNION_R64_SE REUNION_R64_SW REUNION_R64_NW BOM_LAT BOM_LON BOM_TYPE BOM_WIND BOM_PRES BOM_TNUM BOM_CI BOM_RMW BOM_R34_NE BOM_R34_SE BOM_R34_SW BOM_R34_NW BOM_R50_NE BOM_R50_SE BOM_R50_SW BOM_R50_NW BOM_R64_NE BOM_R64_SE BOM_R64_SW BOM_R64_NW BOM_ROCI BOM_POCI BOM_EYE BOM_POS_METHOD BOM_PRES_METHOD NADI_LAT NADI_LON NADI_CAT NADI_WIND NADI_PRES WELLINGTON_LAT WELLINGTON_LON WELLINGTON_WIND WELLINGTON_PRES DS824_LAT DS824_LON DS824_STAGE DS824_WIND DS824_PRES TD9636_LAT TD9636_LON TD9636_STAGE TD9636_WIND TD9636_PRES TD9635_LAT TD9635_LON TD9635_WIND TD9635_PRES TD9635_ROCI NEUMANN_LAT NEUMANN_LON NEUMANN_CLASS NEUMANN_WIND NEUMANN_PRES MLC_LAT MLC_LON MLC_CLASS MLC_WIND MLC_PRES USA_GUST BOM_GUST BOM_GUST_PER REUNION_GUST REUNION_GUST_PER USA_SEAHGT USA_SEARAD_NE USA_SEARAD_SE USA_SEARAD_SW USA_SEARAD_NW STORM_SPEED STORM_DIR
1933335S09099 1934 78 SI WA NOT_NAMED 1933-12-01 06:00:00 NR -8.60000 99.1000 main 622 622 _____O________ -1 -8.60000 99.1000 99 9.90000 2 249
1933335S09099 1934 78 SI WA NOT_NAMED 1933-12-01 09:00:00 NR -8.62785 99.0215 main 630 630 _____P________ -1 -8.62785 99.0215 99 2 250
1933335S09099 1934 78 SI WA NOT_NAMED 1933-12-01 12:00:00 NR -8.66020 98.9362 main 645 645 _____P________ -1 -8.66020 98.9362 99 2 248
1933335S09099 1934 78 SI WA NOT_NAMED 1933-12-01 15:00:00 NR -8.70153 98.8373 main 653 653 _____P________ -1 -8.70153 98.8373 99 2 246
1933335S09099 1934 78 SI WA NOT_NAMED 1933-12-01 18:00:00 NR -8.75635 98.7181 main 669 669 _____P________ -1 -8.75635 98.7181 99 3 244
1933335S09099 1934 78 SI WA NOT_NAMED 1933-12-01 21:00:00 NR -8.82914 98.5716 main 675 675 _____P________ -1 -8.82914 98.5716 99 4 243
1933335S09099 1934 78 SI WA NOT_NAMED 1933-12-02 00:00:00 NR -8.92438 98.3910 main 698 698 _____P________ -1 -8.92438 98.3910 99 5 241
1933335S09099 1934 78 SI WA NOT_NAMED 1933-12-02 03:00:00 NR -9.04652 98.1695 main 720 720 _____P________ -1 -9.04652 98.1695 99 6 240
1933335S09099 1934 78 SI WA NOT_NAMED 1933-12-02 06:00:00 NR -9.20000 97.9000 main 758 758 _____O________ -1 -9.20000 97.9000 99 9.90000 7 240
1933335S09099 1934 78 SI WA NOT_NAMED 1933-12-02 09:00:00 NR -9.38710 97.5788 main 797 797 _____P________ -1 -9.38710 97.5788 99 8 239
1933335S09099 1934 78 SI WA NOT_NAMED 1933-12-02 12:00:00 NR -9.60160 97.2146 main 843 843 _____P________ -1 -9.60160 97.2146 99 9 239
1933335S09099 1934 78 SI WA NOT_NAMED 1933-12-02 15:00:00 NR -9.83516 96.8193 main 889 889 _____P________ -1 -9.83516 96.8193 99 9 239
1933335S09099 1934 78 SI WA NOT_NAMED 1933-12-02 18:00:00 NR -10.0795 96.4049 main 944 944 _____P________ -1 -10.0795 96.4049 99 10 239
1933335S09099 1934 78 SI WA NOT_NAMED 1933-12-02 21:00:00 NR -10.3263 95.9836 main 990 990 _____P________ -1 -10.3263 95.9836 99 10 239
1933335S09099 1934 78 SI WA NOT_NAMED 1933-12-03 00:00:00 NR -10.5674 95.5676 main 1045 1045 _____P________ -1 -10.5674 95.5676 99 9 240
1933335S09099 1934 78 SI WA NOT_NAMED 1933-12-03 03:00:00 NR -10.7946 95.1689 main 1092 1092 _____P________ -1 -10.7946 95.1689 99 9 240
1933335S09099 1934 78 SI WA NOT_NAMED 1933-12-03 06:00:00 NR -11.0000 94.8000 main 1134 1134 _____O________ -1 -11.0000 94.8000 99 9.90000 8 241
1933335S09099 1934 78 SI WA NOT_NAMED 1933-12-03 09:00:00 NR -11.1774 94.4703 main 1169 1169 _____P________ -1 -11.1774 94.4703 99 7 242
1933335S09099 1934 78 SI WA NOT_NAMED 1933-12-03 12:00:00 NR -11.3288 94.1774 main 1194 1194 _____P________ -1 -11.3288 94.1774 99 6 243
1933335S09099 1934 78 SI WA NOT_NAMED 1933-12-03 15:00:00 NR -11.4580 93.9161 main 1228 1228 _____P________ -1 -11.4580 93.9161 99 5 244
1933335S09099 1934 78 SI WA NOT_NAMED 1933-12-03 18:00:00 NR -11.5686 93.6813 main 1248 1248 _____P________ -1 -11.5686 93.6813 99 5 245
1933335S09099 1934 78 SI WA NOT_NAMED 1933-12-03 21:00:00 NR -11.6644 93.4675 main 1269 1269 _____P________ -1 -11.6644 93.4675 99 4 246
1933335S09099 1934 78 SI WA NOT_NAMED 1933-12-04 00:00:00 NR -11.7491 93.2696 main 1279 1279 _____P________ -1 -11.7491 93.2696 99 4 247
1933335S09099 1934 78 SI WA NOT_NAMED 1933-12-04 03:00:00 NR -11.8264 93.0822 main 1300 1300 _____P________ -1 -11.8264 93.0822 99 4 247
1933335S09099 1934 78 SI WA NOT_NAMED 1933-12-04 06:00:00 NR -11.9000 92.9000 main 1320 _____O________ -1 -11.9000 92.9000 99 9.90000 4 247

About IBTrACS Database

This database is a web-friendly format of International Best Track Archive for Climate Stewardship (IBTrACS), a global best track data archive curated by NOAA dating back to 1842.

Updated: 2021-10-25